Bookmark and Share
Track history (hours):
 

Bulktec

Last reported at 2014-Mar-20 23:16 UTC. Time now 2014-Apr-24 09:06 UTC.
Position S 26°44' E 153°10'.
Warning: this ship's position is 34 days out of date.

Length 179 m; draft 6.6 m.

Type: Cargo ship. MMSI: 3699076.

NotesDate/timePositionNaut miles runAvg speedWind from/ knotsBaromVisibWave heightAir tempDewpointWater temp
2014-Mar-20 23:16S 26°44' E 153°10'811.1
2014-Mar-20 22:33S 26°52' E 153°09'1212.5
2014-Mar-20 21:33S 27°03' E 153°16'10 9.8
2014-Mar-20 20:33S 27°12' E 153°17'1312.6
2014-Mar-20 19:33S 27°23' E 153°09'3 3.1
2014-Mar-20 18:33S 27°26' E 153°07'0 0.0
2014-Mar-20 17:33S 27°26' E 153°07'0 0.0
2014-Mar-20 16:33S 27°26' E 153°07'0 0.0
2014-Mar-19 20:24S 27°26' E 153°07'0 0.0
2014-Mar-19 18:30S 27°26' E 153°07'0 0.1
2014-Mar-19 17:33S 27°26' E 153°07'0 0.1
2014-Mar-19 16:30S 27°26' E 153°07'0 0.1
2014-Mar-19 15:33S 27°26' E 153°07'0 0.0
2014-Mar-19 14:24S 27°26' E 153°07'0 0.0
2014-Mar-19 13:27S 27°26' E 153°07'0 0.0
2014-Mar-18 21:21S 27°26' E 153°07'0 0.1
2014-Mar-18 20:18S 27°26' E 153°07'0 0.0
2014-Mar-17 23:21S 27°26' E 153°07'0 0.0
2014-Mar-17 21:27S 27°26' E 153°07'0 0.0
2014-Mar-17 20:09S 27°26' E 153°07'0 0.0
2014-Mar-17 17:18S 27°26' E 153°07'0 0.0
2014-Mar-16 19:27S 27°26' E 153°07'0 0.1
2014-Mar-16 18:33S 27°26' E 153°07'0 0.1
2014-Mar-16 17:30S 27°26' E 153°07'0 0.1
2014-Mar-16 16:33S 27°26' E 153°07'0 0.0
2014-Mar-16 15:33S 27°26' E 153°07'0 0.0
2014-Mar-16 13:27S 27°26' E 153°07'0 0.0
2014-Mar-16 11:21S 27°26' E 153°07'1 0.1
2014-Mar-16 00:29S 27°25' E 153°08'10 7.5
2014-Mar-15 23:06S 27°17' E 153°14'14 9.3
2014-Mar-15 21:33S 27°02' E 153°16'912.9
2014-Mar-15 20:53S 26°55' E 153°11'  

Dump ship's entire track history

sailing weather and tide predictions

Bulktec — VRFJ3 — position and weather